aviador You're here:

KAIA Decoded Metar

ALLIANCE in NE, USA
Report Time2018-05-21 15:53:00
UTC Time2018-05-21 16:42:49
Flight Rules vfr VFR
Wind180° at 12 kt
W.Decomp.*RWY 17: 12.0 kt HW 0.2 kt LCW
RWY 12: 7.9 kt HW 9.1 kt RCW
RWY 08: 0.2 kt HW 12.0 kt RCW
W.Rank180° ranks 11
Current wind is above 180° avg. (10.1)
Visibility9999 m
Phenomena:N/A
Clouds:Few 021 Hf
Expected CloudBase > 2,000 ft AGL from Temp-Dew spread
CeilingNone
Temp16°C (ISA +9)
Dew Point11°C (72% RH)
AAT12.0°C
QNH1016 hPa
Density Alt5,039 ft
Elevation3,924 ft
Report Wrong Elevation
Raw Report
KAIA 211553Z AUTO 18012KT 10SM FEW021 16/11 A3000 RMK AO2 SLP143
T01610106=

Extra information for KAIA:More info

Metar Taf Metar & Taf Last 4 Metars F.Rules Stats Wind Profile Meteogram Temp Stats Airport Information Weather charts Add Link Nearby VenuesMetar ALERT Operation Metar Decoded Social comments

AIRNAV info for KAIA